Time;durP1;ratioP1;P1;durP2;ratioP2;P2;SDS_P1;SDS_P2;PMS_P1;PMS_P2;Temp;Humidity;BMP_temperature;BMP_pressure;BME280_temperature;BME280_humidity;BME280_pressure;Samples;Min_cycle;Max_cycle;Signal;HPM_P1;HPM_P2
2024/01/02 00:01:52;;;;;;;4.00;1.05;;;9.10;86.20;;;;;;5053587;28;20033;-70
2024/01/02 00:04:37;;;;;;;2.47;1.30;;;9.20;86.30;;;;;;5053901;28;20025;-69
2024/01/02 00:07:02;;;;;;;1.88;0.95;;;9.20;86.40;;;;;;5044376;28;20040;-63
2024/01/02 00:09:28;;;;;;;1.75;1.23;;;9.20;86.30;;;;;;5050514;28;20032;-70
2024/01/02 00:11:54;;;;;;;2.38;1.27;;;9.20;86.30;;;;;;5059773;28;20035;-70
2024/01/02 00:14:20;;;;;;;4.13;1.33;;;9.20;86.40;;;;;;5047953;28;20040;-70
2024/01/02 00:16:45;;;;;;;3.15;1.92;;;9.20;86.60;;;;;;5046737;28;20681;-63
2024/01/02 00:19:11;;;;;;;2.78;1.10;;;9.20;86.70;;;;;;5051243;28;20389;-63
2024/01/02 00:21:37;;;;;;;1.98;1.27;;;9.20;86.80;;;;;;5054086;28;20357;-70
2024/01/02 00:24:03;;;;;;;6.63;1.02;;;9.20;86.90;;;;;;5055266;28;20067;-63
2024/01/02 00:26:29;;;;;;;2.40;0.80;;;9.20;87.00;;;;;;5053589;28;20085;-63
2024/01/02 00:28:55;;;;;;;5.40;1.25;;;9.20;87.10;;;;;;5055823;28;20441;-63
2024/01/02 00:31:20;;;;;;;4.60;1.00;;;9.20;87.00;;;;;;5057467;28;20075;-63
2024/01/02 00:33:46;;;;;;;3.50;0.57;;;9.20;87.10;;;;;;5049370;28;20108;-63
2024/01/02 00:36:12;;;;;;;10.43;0.60;;;9.20;87.30;;;;;;5028016;28;20045;-63
2024/01/02 00:38:40;;;;;;;3.05;1.17;;;9.10;87.40;;;;;;5057561;28;20383;-63
2024/01/02 00:41:06;;;;;;;5.72;1.55;;;9.10;87.50;;;;;;5048700;28;20458;-63
2024/01/02 00:43:32;;;;;;;4.70;2.17;;;9.10;87.70;;;;;;5055451;28;20033;-63
2024/01/02 00:45:59;;;;;;;3.38;1.70;;;9.10;87.70;;;;;;5047861;28;20064;-63
2024/01/02 00:48:26;;;;;;;3.00;0.82;;;9.10;87.70;;;;;;5049263;28;20519;-63
2024/01/02 00:50:52;;;;;;;7.15;1.52;;;9.20;87.70;;;;;;5054617;28;20078;-70
2024/01/02 00:53:18;;;;;;;2.20;1.15;;;9.20;87.70;;;;;;5054357;28;20369;-63
2024/01/02 00:55:43;;;;;;;1.60;0.90;;;9.20;87.70;;;;;;5062850;28;20134;-70
2024/01/02 00:58:09;;;;;;;5.15;1.20;;;9.20;87.70;;;;;;5057082;28;20040;-63
2024/01/02 01:00:35;;;;;;;1.77;0.65;;;9.20;87.70;;;;;;5056692;28;20480;-70
2024/01/02 01:03:00;;;;;;;2.45;1.08;;;9.30;87.80;;;;;;5056597;28;20040;-70
2024/01/02 01:05:26;;;;;;;2.70;1.27;;;9.20;87.70;;;;;;5054350;28;20120;-63
2024/01/02 01:07:52;;;;;;;6.68;0.70;;;9.20;87.70;;;;;;5043143;28;20064;-64
2024/01/02 01:10:18;;;;;;;1.83;0.60;;;9.30;87.70;;;;;;5057380;28;20031;-70
2024/01/02 01:12:47;;;;;;;2.03;0.85;;;9.30;87.80;;;;;;5060678;28;20028;-70
2024/01/02 01:15:13;;;;;;;2.60;0.85;;;9.30;87.80;;;;;;5053336;28;20025;-70
2024/01/02 01:17:39;;;;;;;1.27;1.05;;;9.30;87.90;;;;;;5055032;28;20338;-70
2024/01/02 01:20:05;;;;;;;1.25;0.82;;;9.30;87.90;;;;;;5061666;28;20247;-63
2024/01/02 01:22:31;;;;;;;1.85;0.75;;;9.30;88.10;;;;;;5049627;28;20039;-70
2024/01/02 01:24:57;;;;;;;1.75;1.13;;;9.30;88.20;;;;;;5054585;28;20479;-70
2024/01/02 01:27:22;;;;;;;1.90;0.85;;;9.30;88.20;;;;;;5052574;28;20048;-63
2024/01/02 01:29:48;;;;;;;1.05;0.73;;;9.30;88.20;;;;;;5053071;28;20122;-68
2024/01/02 01:32:14;;;;;;;0.80;0.77;;;9.30;88.30;;;;;;5057331;28;20049;-70
2024/01/02 01:34:40;;;;;;;2.35;0.90;;;9.30;88.40;;;;;;5059656;28;20075;-70
2024/01/02 01:37:05;;;;;;;1.20;0.43;;;9.30;88.40;;;;;;5049161;28;20100;-64
2024/01/02 01:39:31;;;;;;;0.47;0.32;;;9.30;88.30;;;;;;5052438;28;20033;-63
2024/01/02 01:41:57;;;;;;;5.97;1.25;;;9.30;88.30;;;;;;5050900;28;20033;-63
2024/01/02 01:44:22;;;;;;;0.52;0.50;;;9.30;88.30;;;;;;5054569;28;20494;-69
2024/01/02 01:46:49;;;;;;;1.25;0.57;;;9.30;88.30;;;;;;5053652;28;20029;-70
2024/01/02 01:49:15;;;;;;;0.65;0.52;;;9.40;88.40;;;;;;5063021;28;20017;-70
2024/01/02 01:51:42;;;;;;;1.05;0.52;;;9.40;88.50;;;;;;5053570;28;20021;-63
2024/01/02 01:54:14;;;;;;;0.80;0.50;;;9.30;88.40;;;;;;5057233;28;20013;-63
2024/01/02 01:56:42;;;;;;;0.53;0.53;;;9.40;88.50;;;;;;5059509;28;20523;-70
2024/01/02 01:59:09;;;;;;;1.25;0.77;;;9.40;88.50;;;;;;5057614;28;20032;-69
2024/01/02 02:01:35;;;;;;;3.40;0.77;;;9.40;88.50;;;;;;5055521;28;20025;-63
2024/01/02 02:04:01;;;;;;;2.20;1.13;;;9.40;88.60;;;;;;5053196;28;20037;-68
2024/01/02 02:06:27;;;;;;;4.32;0.57;;;9.40;88.60;;;;;;5064094;28;20074;-70
2024/01/02 02:08:53;;;;;;;1.02;0.52;;;9.40;88.60;;;;;;5053539;28;20021;-63
2024/01/02 02:11:20;;;;;;;1.10;0.50;;;9.40;88.70;;;;;;5058282;28;20021;-70
2024/01/02 02:13:47;;;;;;;1.23;0.52;;;9.30;88.70;;;;;;5056611;28;20029;-70
2024/01/02 02:16:16;;;;;;;4.15;0.55;;;9.40;88.80;;;;;;5054897;28;20559;-70
2024/01/02 02:18:42;;;;;;;2.28;0.63;;;9.40;88.80;;;;;;5055221;28;20161;-70
2024/01/02 02:21:07;;;;;;;0.80;0.65;;;9.40;88.80;;;;;;5057584;28;20025;-70
2024/01/02 02:23:33;;;;;;;1.38;0.70;;;9.40;88.90;;;;;;5062659;28;20033;-70
2024/01/02 02:25:59;;;;;;;2.60;0.47;;;9.40;88.90;;;;;;5039686;28;20033;-70
2024/01/02 02:28:25;;;;;;;1.85;0.47;;;9.40;88.90;;;;;;5055630;28;20028;-70
2024/01/02 02:30:51;;;;;;;2.13;0.60;;;9.40;88.90;;;;;;5044367;28;20127;-63
2024/01/02 02:33:17;;;;;;;1.23;0.50;;;9.40;89.00;;;;;;5029663;28;20151;-63
2024/01/02 02:35:42;;;;;;;1.00;0.60;;;9.40;89.10;;;;;;5044791;28;20029;-64
2024/01/02 02:38:08;;;;;;;0.73;0.60;;;9.40;89.10;;;;;;5050266;28;20404;-64
2024/01/02 02:40:35;;;;;;;0.85;0.50;;;9.40;89.10;;;;;;5047565;28;20116;-64
2024/01/02 02:43:01;;;;;;;1.55;0.52;;;9.40;89.20;;;;;;5047960;28;20036;-70
2024/01/02 02:45:27;;;;;;;2.90;0.68;;;9.30;89.30;;;;;;5052461;28;20389;-63
2024/01/02 02:47:53;;;;;;;0.90;0.43;;;9.30;89.30;;;;;;5055579;28;20136;-63
2024/01/02 02:50:19;;;;;;;0.95;0.50;;;9.30;89.30;;;;;;5049544;28;20034;-71
2024/01/02 02:52:45;;;;;;;0.20;0.20;;;9.30;89.30;;;;;;5043411;28;20036;-63
2024/01/02 02:55:11;;;;;;;2.30;0.40;;;9.40;89.30;;;;;;5039920;28;20063;-71
2024/01/02 02:57:37;;;;;;;0.95;0.20;;;9.40;89.30;;;;;;5049432;28;20502;-71
2024/01/02 03:00:04;;;;;;;0.32;0.30;;;9.40;89.40;;;;;;5041034;28;20044;-71
2024/01/02 03:02:30;;;;;;;0.50;0.50;;;9.30;89.30;;;;;;5049785;28;20095;-71
2024/01/02 03:04:56;;;;;;;0.57;0.22;;;9.40;89.40;;;;;;5046336;28;20041;-70
2024/01/02 03:07:21;;;;;;;0.30;0.30;;;9.30;89.40;;;;;;5045101;28;20044;-70
2024/01/02 03:09:47;;;;;;;0.15;0.15;;;9.30;89.40;;;;;;5053966;28;20033;-63
2024/01/02 03:12:13;;;;;;;0.95;0.43;;;9.30;89.50;;;;;;5043826;28;20480;-63
2024/01/02 03:14:39;;;;;;;0.20;0.20;;;9.30;89.50;;;;;;5052083;28;20112;-63
2024/01/02 03:17:04;;;;;;;1.02;0.50;;;9.30;89.70;;;;;;5045759;28;20033;-63
2024/01/02 03:19:31;;;;;;;0.52;0.40;;;9.30;89.80;;;;;;5045226;28;20043;-70
2024/01/02 03:21:57;;;;;;;1.55;0.60;;;9.30;89.70;;;;;;5044644;28;20434;-64
2024/01/02 03:24:22;;;;;;;0.32;0.32;;;9.30;89.70;;;;;;5052779;28;20041;-64
2024/01/02 03:26:48;;;;;;;0.93;0.60;;;9.30;89.70;;;;;;5045063;28;20614;-63
2024/01/02 03:29:16;;;;;;;0.30;0.30;;;9.40;89.70;;;;;;5047469;28;20116;-70
2024/01/02 03:31:42;;;;;;;0.40;0.40;;;9.40;89.70;;;;;;5051622;28;20559;-70
2024/01/02 03:34:08;;;;;;;0.90;0.50;;;9.40;89.70;;;;;;5052859;28;20123;-70
2024/01/02 03:36:34;;;;;;;0.50;0.30;;;9.40;89.70;;;;;;5052670;28;20120;-70
2024/01/02 03:39:00;;;;;;;1.85;0.45;;;9.40;89.60;;;;;;5049141;28;20079;-70
2024/01/02 03:41:26;;;;;;;1.52;0.40;;;9.40;89.60;;;;;;5027731;28;20036;-70
2024/01/02 03:43:51;;;;;;;0.73;0.57;;;9.40;89.60;;;;;;5055226;28;20043;-63
2024/01/02 03:46:17;;;;;;;0.38;0.30;;;9.50;89.60;;;;;;5057672;28;20025;-70
2024/01/02 03:48:43;;;;;;;1.67;0.52;;;9.50;89.50;;;;;;5039489;28;20040;-64
2024/01/02 03:51:08;;;;;;;0.47;0.28;;;9.50;89.40;;;;;;5057289;28;20033;-64
2024/01/02 03:53:34;;;;;;;0.15;0.15;;;9.50;89.40;;;;;;5052157;28;20140;-64
2024/01/02 03:56:00;;;;;;;0.28;0.17;;;9.50;89.40;;;;;;5053196;28;20045;-63
2024/01/02 03:58:27;;;;;;;0.45;0.20;;;9.50;89.50;;;;;;5054706;28;20029;-63
2024/01/02 04:00:54;;;;;;;9.02;0.63;;;9.50;89.50;;;;;;5050817;28;20367;-63
2024/01/02 04:03:20;;;;;;;0.13;0.13;;;9.50;89.50;;;;;;5054890;28;20021;-64
2024/01/02 04:05:46;;;;;;;0.63;0.43;;;9.50;89.60;;;;;;5051786;28;20028;-70
2024/01/02 04:08:11;;;;;;;0.30;0.30;;;9.50;89.60;;;;;;5045673;28;20438;-70
2024/01/02 04:10:39;;;;;;;0.20;0.20;;;9.50;89.70;;;;;;5058312;28;20061;-63
2024/01/02 04:13:05;;;;;;;0.88;0.52;;;9.50;89.70;;;;;;5049486;28;20028;-70
2024/01/02 04:15:31;;;;;;;0.20;0.20;;;9.50;89.70;;;;;;5048725;28;20037;-70
2024/01/02 04:17:56;;;;;;;1.08;0.40;;;9.50;89.60;;;;;;5051247;28;20029;-70
2024/01/02 04:20:22;;;;;;;0.17;0.17;;;9.50;89.50;;;;;;5054482;28;20041;-63
2024/01/02 04:22:53;;;;;;;0.20;0.20;;;9.50;89.60;;;;;;5052586;28;20150;-63
2024/01/02 04:25:19;;;;;;;0.22;0.22;;;9.50;89.70;;;;;;5057644;28;20479;-64
2024/01/02 04:27:44;;;;;;;0.20;0.20;;;9.50;90.00;;;;;;5052335;28;20043;-64
2024/01/02 04:30:11;;;;;;;0.30;0.30;;;9.50;90.00;;;;;;5052163;28;20440;-71
2024/01/02 04:32:37;;;;;;;0.10;0.10;;;9.60;90.00;;;;;;5055094;28;20048;-71
2024/01/02 04:35:03;;;;;;;0.10;0.10;;;9.60;89.90;;;;;;5057051;28;20029;-71
2024/01/02 04:37:29;;;;;;;0.20;0.20;;;9.60;89.80;;;;;;5047668;28;20080;-63
2024/01/02 04:39:55;;;;;;;0.10;0.10;;;9.60;89.80;;;;;;5053479;28;20388;-64
2024/01/02 04:42:21;;;;;;;0.52;0.20;;;9.60;89.80;;;;;;5052602;28;20065;-64
2024/01/02 04:44:47;;;;;;;0.10;0.10;;;9.70;89.80;;;;;;5051212;28;20036;-64
2024/01/02 04:47:12;;;;;;;0.13;0.13;;;9.70;89.80;;;;;;5051256;28;20033;-71
2024/01/02 04:49:38;;;;;;;0.10;0.10;;;9.70;89.80;;;;;;5051407;28;20441;-64
2024/01/02 04:52:04;;;;;;;0.68;0.17;;;9.70;89.80;;;;;;5051698;28;20037;-64
2024/01/02 04:54:30;;;;;;;0.13;0.13;;;9.80;89.80;;;;;;5050521;28;20029;-64
2024/01/02 04:56:57;;;;;;;0.10;0.10;;;9.80;89.70;;;;;;5050555;28;20025;-64
2024/01/02 04:59:23;;;;;;;0.10;0.10;;;9.80;89.70;;;;;;5046919;28;20468;-64
2024/01/02 05:01:49;;;;;;;0.17;0.17;;;9.90;89.60;;;;;;5049995;28;20146;-71
2024/01/02 05:04:15;;;;;;;0.10;0.10;;;9.90;89.70;;;;;;5049554;28;20061;-64
2024/01/02 05:06:41;;;;;;;0.10;0.10;;;9.90;89.70;;;;;;5047520;28;20057;-64
2024/01/02 05:09:08;;;;;;;0.10;0.10;;;9.90;89.70;;;;;;5051182;28;20060;-63
2024/01/02 05:11:38;;;;;;;0.10;0.10;;;9.90;89.60;;;;;;5049765;28;20060;-71
2024/01/02 05:14:04;;;;;;;0.10;0.10;;;9.90;89.70;;;;;;5051439;28;20036;-70
2024/01/02 05:16:30;;;;;;;0.10;0.10;;;9.90;89.80;;;;;;5052908;28;20029;-71
2024/01/02 05:18:55;;;;;;;0.10;0.10;;;10.00;89.80;;;;;;5049201;28;20170;-71
2024/01/02 05:21:21;;;;;;;0.10;0.10;;;10.00;89.80;;;;;;5049362;28;20498;-71
2024/01/02 05:23:47;;;;;;;0.10;0.10;;;10.00;90.00;;;;;;5053553;28;20040;-71
2024/01/02 05:26:13;;;;;;;0.10;0.10;;;10.10;90.00;;;;;;5053347;28;20396;-71
2024/01/02 05:28:38;;;;;;;0.10;0.10;;;10.00;90.20;;;;;;5061208;28;20028;-71
2024/01/02 05:31:04;;;;;;;0.10;0.10;;;10.10;90.20;;;;;;5049918;28;20049;-71
2024/01/02 05:33:30;;;;;;;0.10;0.10;;;10.20;90.30;;;;;;5055639;28;20032;-71
2024/01/02 05:35:56;;;;;;;0.10;0.10;;;10.20;90.30;;;;;;5051747;28;20021;-71
2024/01/02 05:38:22;;;;;;;0.13;0.13;;;10.20;90.30;;;;;;5059304;28;20182;-71
2024/01/02 05:40:48;;;;;;;0.10;0.10;;;10.30;90.30;;;;;;5051750;28;20025;-70
2024/01/02 05:43:14;;;;;;;0.20;0.20;;;10.30;90.40;;;;;;5048609;28;20035;-71
2024/01/02 05:45:40;;;;;;;0.20;0.20;;;10.40;90.40;;;;;;5053919;28;20545;-71
2024/01/02 05:48:06;;;;;;;0.20;0.20;;;10.40;90.30;;;;;;5055950;28;20083;-71
2024/01/02 05:50:31;;;;;;;0.20;0.20;;;10.40;90.50;;;;;;5054559;28;20041;-63
2024/01/02 05:52:57;;;;;;;0.20;0.20;;;10.40;90.60;;;;;;5050672;28;20064;-63
2024/01/02 05:55:23;;;;;;;0.20;0.20;;;10.40;90.80;;;;;;5049422;28;20037;-71
2024/01/02 05:57:49;;;;;;;0.20;0.20;;;10.50;90.80;;;;;;5056003;28;20508;-71
2024/01/02 06:00:15;;;;;;;0.10;0.10;;;10.50;91.20;;;;;;5055428;28;20102;-62
2024/01/02 06:02:41;;;;;;;0.28;0.28;;;10.60;91.00;;;;;;5056524;28;20502;-62
2024/01/02 06:05:07;;;;;;;0.10;0.10;;;10.60;91.00;;;;;;5053785;28;20029;-62
2024/01/02 06:07:32;;;;;;;0.17;0.17;;;10.70;91.10;;;;;;5058475;28;20046;-62
2024/01/02 06:09:58;;;;;;;0.30;0.30;;;10.70;91.10;;;;;;5057138;28;20364;-70
2024/01/02 06:12:24;;;;;;;0.38;0.35;;;10.80;91.20;;;;;;5055820;28;20041;-70
2024/01/02 06:14:49;;;;;;;0.38;0.32;;;10.80;91.10;;;;;;5059562;28;20095;-71
2024/01/02 06:17:15;;;;;;;0.20;0.17;;;10.90;91.00;;;;;;5057993;28;20064;-70
2024/01/02 06:19:41;;;;;;;0.40;0.40;;;10.90;91.00;;;;;;5051527;28;20029;-63
2024/01/02 06:22:06;;;;;;;0.30;0.30;;;11.00;91.10;;;;;;5052315;28;20037;-62
2024/01/02 06:24:32;;;;;;;0.22;0.22;;;11.00;91.10;;;;;;5055524;28;20029;-62
2024/01/02 06:26:57;;;;;;;0.65;0.32;;;11.00;91.20;;;;;;5050744;28;20064;-63
2024/01/02 06:29:25;;;;;;;0.20;0.20;;;11.10;91.10;;;;;;5055171;28;20036;-71
2024/01/02 06:31:50;;;;;;;0.20;0.20;;;11.10;91.10;;;;;;5049185;28;20060;-71
2024/01/02 06:34:16;;;;;;;0.30;0.30;;;11.20;91.30;;;;;;5059255;28;20024;-71
2024/01/02 06:36:42;;;;;;;0.38;0.30;;;11.20;91.20;;;;;;5058291;28;20037;-71
2024/01/02 06:39:07;;;;;;;0.20;0.20;;;11.30;91.20;;;;;;5058723;28;20029;-71
2024/01/02 06:41:33;;;;;;;0.40;0.30;;;11.30;91.20;;;;;;5057458;28;20069;-71
2024/01/02 06:43:59;;;;;;;0.35;0.30;;;11.40;91.40;;;;;;5046601;28;20032;-71
2024/01/02 06:46:25;;;;;;;0.47;0.32;;;11.40;91.50;;;;;;5033788;28;20054;-71
2024/01/02 06:48:50;;;;;;;1.67;0.70;;;11.40;91.40;;;;;;5055385;28;20379;-71
2024/01/02 06:51:16;;;;;;;0.98;0.60;;;11.50;91.70;;;;;;5050327;28;20029;-71
2024/01/02 06:53:42;;;;;;;1.17;0.60;;;11.50;91.70;;;;;;5055285;28;20031;-71
2024/01/02 06:56:08;;;;;;;0.90;0.60;;;11.60;91.60;;;;;;5052011;28;20033;-68
2024/01/02 06:58:34;;;;;;;0.63;0.57;;;11.70;91.60;;;;;;5049944;28;20032;-72
2024/01/02 07:00:59;;;;;;;0.98;0.57;;;11.70;91.60;;;;;;5053236;28;20021;-72
2024/01/02 07:03:25;;;;;;;1.02;0.75;;;11.70;91.60;;;;;;5056586;28;20041;-72
2024/01/02 07:05:51;;;;;;;1.33;1.13;;;11.80;91.70;;;;;;5057211;28;20020;-72
2024/01/02 07:08:16;;;;;;;1.10;1.00;;;11.90;91.80;;;;;;5056362;28;20063;-73
2024/01/02 07:10:42;;;;;;;2.83;1.25;;;11.90;91.80;;;;;;5052066;28;20024;-72
2024/01/02 07:13:08;;;;;;;3.55;1.40;;;11.90;91.90;;;;;;5055246;28;20984;-73
2024/01/02 07:15:33;;;;;;;1.90;1.45;;;12.00;92.00;;;;;;5055829;28;20578;-73
2024/01/02 07:17:59;;;;;;;1.52;0.82;;;12.00;91.80;;;;;;5051756;28;20040;-72
2024/01/02 07:20:25;;;;;;;1.80;1.13;;;12.10;91.80;;;;;;5065428;28;20039;-72
2024/01/02 07:22:50;;;;;;;2.67;1.33;;;12.10;92.00;;;;;;5056554;28;20025;-72
2024/01/02 07:25:16;;;;;;;1.92;1.10;;;12.10;91.70;;;;;;5056034;28;20044;-72
2024/01/02 07:27:42;;;;;;;2.40;1.38;;;12.20;91.70;;;;;;5060734;28;20071;-73
2024/01/02 07:30:08;;;;;;;4.38;1.83;;;12.20;91.60;;;;;;5059222;28;20102;-72
2024/01/02 07:32:34;;;;;;;2.10;1.63;;;12.30;91.80;;;;;;5054224;28;20048;-70
2024/01/02 07:35:01;;;;;;;3.72;1.50;;;12.30;91.80;;;;;;5056448;28;20039;-67
2024/01/02 07:37:26;;;;;;;4.03;1.85;;;12.30;91.90;;;;;;5057472;28;20052;-71
2024/01/02 07:39:53;;;;;;;3.05;1.73;;;12.30;92.00;;;;;;5052114;28;20170;-66
2024/01/02 07:42:19;;;;;;;4.45;1.65;;;12.40;92.00;;;;;;5051070;28;20090;-68
2024/01/02 07:44:45;;;;;;;2.78;1.08;;;12.40;92.00;;;;;;5052414;28;20396;-64
2024/01/02 07:47:11;;;;;;;11.43;2.30;;;12.50;91.90;;;;;;5053468;28;20032;-69
2024/01/02 07:49:36;;;;;;;1.85;1.45;;;12.50;91.80;;;;;;5063458;28;20111;-67
2024/01/02 07:52:02;;;;;;;2.72;1.60;;;12.50;91.70;;;;;;5049760;28;20072;-65
2024/01/02 07:54:28;;;;;;;3.47;1.73;;;12.60;91.60;;;;;;5048720;28;20028;-66
2024/01/02 07:56:54;;;;;;;3.35;1.15;;;12.60;91.60;;;;;;5049185;28;20048;-63
2024/01/02 07:59:21;;;;;;;3.70;1.58;;;12.60;91.50;;;;;;5049085;28;20032;-66
2024/01/02 08:01:50;;;;;;;3.00;1.00;;;12.60;91.50;;;;;;5054943;28;20089;-68
2024/01/02 08:04:16;;;;;;;3.35;1.80;;;12.60;91.50;;;;;;5053393;28;20052;-70
2024/01/02 08:06:41;;;;;;;6.25;1.80;;;12.60;91.50;;;;;;5056887;28;20035;-71
2024/01/02 08:09:07;;;;;;;3.97;1.20;;;12.60;91.50;;;;;;5069669;28;20028;-71
2024/01/02 08:11:33;;;;;;;13.23;1.98;;;12.70;91.50;;;;;;5048176;28;20056;-62
2024/01/02 08:13:58;;;;;;;13.40;1.20;;;12.70;91.40;;;;;;5052074;28;20079;-69
2024/01/02 08:16:24;;;;;;;8.50;1.98;;;12.70;91.40;;;;;;5053305;28;20041;-71
2024/01/02 08:18:50;;;;;;;10.77;1.77;;;12.70;91.30;;;;;;5052054;28;20443;-67
2024/01/02 08:21:15;;;;;;;3.55;1.30;;;12.70;91.30;;;;;;5045037;28;20610;-64
2024/01/02 08:23:41;;;;;;;3.10;1.20;;;12.70;91.30;;;;;;5048329;28;20462;-63
2024/01/02 08:26:12;;;;;;;2.67;1.10;;;12.70;91.30;;;;;;5052836;28;20091;-67
2024/01/02 08:28:38;;;;;;;13.68;2.17;;;12.70;91.20;;;;;;5055333;28;20522;-62
2024/01/02 08:31:04;;;;;;;3.28;1.90;;;12.70;91.20;;;;;;5047026;28;20045;-70
2024/01/02 08:33:30;;;;;;;3.58;1.73;;;12.70;91.30;;;;;;5050638;28;20028;-70
2024/01/02 08:35:55;;;;;;;1.33;0.90;;;12.70;91.30;;;;;;5047801;28;20025;-63
2024/01/02 08:38:21;;;;;;;4.93;1.92;;;12.70;91.20;;;;;;5052000;28;20033;-70
2024/01/02 08:40:47;;;;;;;2.60;1.13;;;12.70;91.20;;;;;;5048954;28;20476;-70
2024/01/02 08:43:14;;;;;;;5.13;2.08;;;12.80;91.20;;;;;;5050824;28;20037;-68
2024/01/02 08:45:39;;;;;;;7.35;2.35;;;12.80;91.20;;;;;;5049495;28;20480;-67
2024/01/02 08:48:05;;;;;;;5.45;1.52;;;12.80;91.20;;;;;;5052204;28;20066;-69
2024/01/02 08:50:31;;;;;;;5.38;1.83;;;12.80;91.30;;;;;;5047388;28;20550;-70
2024/01/02 08:52:58;;;;;;;5.53;2.20;;;12.80;91.30;;;;;;5054802;28;20021;-68
2024/01/02 08:55:24;;;;;;;4.90;2.35;;;12.80;91.30;;;;;;5032521;28;20041;-69
2024/01/02 08:57:49;;;;;;;8.93;2.17;;;12.80;91.30;;;;;;5037764;28;20396;-68
2024/01/02 09:00:15;;;;;;;5.95;1.80;;;12.80;91.30;;;;;;5050534;28;20484;-67
2024/01/02 09:02:42;;;;;;;7.82;1.83;;;12.90;91.20;;;;;;5044316;28;20028;-68
2024/01/02 09:05:08;;;;;;;4.88;1.00;;;12.90;91.20;;;;;;5048052;28;20029;-68
2024/01/02 09:07:36;;;;;;;3.70;1.88;;;12.90;91.10;;;;;;5043595;28;20063;-68
2024/01/02 09:10:02;;;;;;;5.18;1.85;;;12.90;91.10;;;;;;5040113;28;20021;-68
2024/01/02 09:12:28;;;;;;;4.40;1.88;;;12.90;91.00;;;;;;5040619;28;20148;-68
2024/01/02 09:14:54;;;;;;;6.20;2.05;;;12.90;91.00;;;;;;5046074;28;20432;-61
2024/01/02 09:17:20;;;;;;;8.98;3.00;;;12.90;91.00;;;;;;5036355;28;20519;-61
2024/01/02 09:19:46;;;;;;;3.47;1.67;;;12.90;91.00;;;;;;5044761;28;20037;-62
2024/01/02 09:22:11;;;;;;;13.90;2.85;;;13.00;91.00;;;;;;5046591;28;20030;-62
2024/01/02 09:24:39;;;;;;;5.85;1.55;;;13.00;91.00;;;;;;5048808;28;20029;-62
2024/01/02 09:27:08;;;;;;;10.63;2.42;;;13.00;91.00;;;;;;5044998;28;20537;-62
2024/01/02 09:29:33;;;;;;;7.70;2.40;;;13.10;90.90;;;;;;5037004;28;20033;-62
2024/01/02 09:31:59;;;;;;;6.40;1.80;;;13.10;90.90;;;;;;4977295;28;1124818;-68
2024/01/02 09:34:25;;;;;;;4.35;1.83;;;13.10;90.90;;;;;;5033098;28;20067;-62
2024/01/02 09:36:54;;;;;;;2.60;1.15;;;13.10;90.80;;;;;;5044170;28;20052;-62
2024/01/02 09:39:19;;;;;;;3.92;1.85;;;13.10;90.80;;;;;;5039086;28;20047;-68
2024/01/02 09:41:48;;;;;;;5.47;1.90;;;13.20;90.80;;;;;;5052832;28;20041;-62
2024/01/02 09:44:22;;;;;;;6.50;1.58;;;13.20;90.80;;;;;;5035246;28;20028;-62
2024/01/02 09:47:22;;;;;;;3.70;1.35;;;13.20;90.70;;;;;;5044201;28;20036;-61
2024/01/02 09:49:57;;;;;;;4.00;1.70;;;13.20;90.70;;;;;;5042232;28;20395;-62
2024/01/02 09:52:49;;;;;;;3.60;1.20;;;13.20;90.70;;;;;;5033128;28;20022;-62
2024/01/02 09:55:20;;;;;;;11.25;1.67;;;13.20;90.70;;;;;;5043561;28;20029;-62
2024/01/02 09:58:11;;;;;;;8.00;1.95;;;13.20;90.70;;;;;;5034316;28;20049;-62
2024/01/02 10:01:06;;;;;;;4.95;1.70;;;13.30;90.70;;;;;;5049991;28;20422;-68
2024/01/02 10:04:04;;;;;;;4.60;1.98;;;13.30;90.70;;;;;;5044742;28;20472;-68
2024/01/02 10:07:05;;;;;;;1.45;1.33;;;13.30;90.60;;;;;;5019300;28;20053;-68
2024/01/02 10:09:50;;;;;;;3.55;1.80;;;13.30;90.60;;;;;;5046788;28;20053;-68
2024/01/02 10:12:46;;;;;;;4.05;1.50;;;13.30;90.70;;;;;;5038323;28;20029;-69
2024/01/02 10:15:32;;;;;;;5.55;1.98;;;13.30;90.60;;;;;;5052270;28;20183;-69
2024/01/02 10:18:07;;;;;;;5.53;1.95;;;13.30;90.70;;;;;;5033940;28;20079;-69
2024/01/02 10:21:16;;;;;;;2.95;2.22;;;13.30;91.00;;;;;;5044210;28;20154;-68
2024/01/02 10:23:54;;;;;;;5.47;1.45;;;13.30;90.70;;;;;;5040888;28;20048;-69
2024/01/02 10:26:24;;;;;;;3.17;1.92;;;13.40;90.70;;;;;;5032896;28;20037;-69
2024/01/02 10:28:52;;;;;;;3.20;1.73;;;13.40;90.70;;;;;;5048545;28;20067;-69
2024/01/02 10:31:28;;;;;;;7.78;2.55;;;13.30;90.90;;;;;;5046065;28;20045;-69
2024/01/02 10:34:19;;;;;;;8.50;2.53;;;13.40;90.80;;;;;;5053581;28;20029;-69
2024/01/02 10:36:56;;;;;;;5.38;2.22;;;13.40;90.80;;;;;;5042463;28;20040;-69
2024/01/02 10:39:56;;;;;;;5.03;2.33;;;13.40;90.90;;;;;;5043668;28;20029;-69
2024/01/02 10:42:55;;;;;;;4.03;1.83;;;13.40;90.90;;;;;;5045654;28;20032;-68
2024/01/02 10:45:27;;;;;;;2.55;1.45;;;13.40;90.90;;;;;;5043437;28;20044;-63
2024/01/02 10:48:11;;;;;;;5.85;2.33;;;13.40;90.90;;;;;;5049093;28;20035;-63
2024/01/02 10:51:05;;;;;;;6.20;1.95;;;13.40;90.90;;;;;;5048657;28;20100;-69
2024/01/02 10:53:45;;;;;;;3.17;1.75;;;13.40;90.80;;;;;;5046799;28;20036;-69
2024/01/02 10:56:22;;;;;;;4.10;2.38;;;13.40;90.80;;;;;;5055377;28;20032;-69
2024/01/02 10:59:11;;;;;;;4.53;2.03;;;13.40;90.80;;;;;;5040020;28;20025;-69
2024/01/02 11:01:40;;;;;;;2.63;1.40;;;13.50;90.80;;;;;;5047053;28;20104;-63
2024/01/02 11:04:18;;;;;;;3.17;1.90;;;13.50;90.80;;;;;;5050585;28;20480;-63
2024/01/02 11:06:48;;;;;;;2.72;1.40;;;13.50;90.80;;;;;;5052013;28;20102;-63
2024/01/02 11:09:27;;;;;;;3.08;2.08;;;13.50;90.80;;;;;;5053776;28;20021;-62
2024/01/02 11:11:54;;;;;;;2.83;1.77;;;13.40;90.90;;;;;;5049097;28;20033;-62
2024/01/02 11:14:21;;;;;;;1.55;1.20;;;13.40;90.90;;;;;;5057360;28;20418;-69
2024/01/02 11:16:51;;;;;;;1.98;1.25;;;13.40;90.90;;;;;;5049275;28;20078;-69
2024/01/02 11:19:22;;;;;;;1.75;0.85;;;13.40;91.00;;;;;;5044276;28;20026;-62
2024/01/02 11:21:57;;;;;;;2.10;1.07;;;13.40;91.10;;;;;;5027793;28;20353;-62
2024/01/02 11:24:28;;;;;;;1.05;0.70;;;13.40;91.10;;;;;;5049238;28;20025;-69
2024/01/02 11:26:59;;;;;;;0.57;0.50;;;13.40;91.10;;;;;;5044094;28;20032;-63
2024/01/02 11:29:28;;;;;;;1.05;0.60;;;13.30;91.10;;;;;;5048792;28;20035;-63
2024/01/02 11:31:55;;;;;;;0.98;0.52;;;13.30;91.10;;;;;;5047717;28;20351;-63
2024/01/02 11:34:36;;;;;;;0.63;0.57;;;13.30;91.10;;;;;;5040451;28;20086;-63
2024/01/02 11:37:45;;;;;;;0.55;0.55;;;13.30;91.10;;;;;;5047660;28;20035;-63
2024/01/02 11:40:35;;;;;;;0.90;0.38;;;13.40;91.20;;;;;;5044624;28;20530;-63
2024/01/02 11:43:09;;;;;;;0.40;0.40;;;13.30;91.20;;;;;;5047359;28;20056;-63
2024/01/02 11:45:37;;;;;;;1.00;0.68;;;13.30;91.20;;;;;;5049389;28;20158;-62
2024/01/02 11:48:12;;;;;;;0.50;0.50;;;13.30;91.20;;;;;;5040733;28;20082;-63
2024/01/02 11:50:56;;;;;;;1.00;0.38;;;13.40;91.20;;;;;;5044363;28;20033;-63
2024/01/02 11:53:59;;;;;;;0.82;0.50;;;13.30;91.20;;;;;;5040493;28;20104;-63
2024/01/02 11:56:27;;;;;;;;;;;13.40;91.20;;;;;;5047420;28;20025;-63
2024/01/02 11:59:31;;;;;;;0.30;0.30;;;13.30;91.20;;;;;;5061770;28;19917;-63
2024/01/02 12:02:25;;;;;;;0.68;0.65;;;13.30;91.20;;;;;;5049712;28;20033;-63
2024/01/02 12:05:08;;;;;;;0.40;0.40;;;13.30;91.20;;;;;;5049255;28;20527;-63
2024/01/02 12:07:38;;;;;;;1.80;0.57;;;13.30;91.20;;;;;;5051673;28;20428;-63
2024/01/02 12:10:05;;;;;;;0.57;0.52;;;13.30;91.20;;;;;;5049196;28;20021;-63
2024/01/02 12:12:45;;;;;;;0.65;0.52;;;13.30;91.10;;;;;;5051511;28;20123;-62
2024/01/02 12:15:34;;;;;;;1.63;0.20;;;13.40;91.10;;;;;;5049408;28;20063;-61
2024/01/02 12:18:03;;;;;;;0.77;0.40;;;13.30;91.10;;;;;;5045397;28;20033;-62
2024/01/02 12:20:40;;;;;;;0.25;0.25;;;13.40;91.10;;;;;;5046427;28;20489;-61
2024/01/02 12:23:07;;;;;;;0.57;0.30;;;13.40;91.10;;;;;;5050295;28;20028;-62
2024/01/02 12:25:33;;;;;;;0.20;0.20;;;13.40;91.10;;;;;;5054619;28;20518;-62
2024/01/02 12:28:01;;;;;;;0.15;0.15;;;13.30;91.00;;;;;;5051332;28;20036;-62
2024/01/02 12:30:45;;;;;;;0.30;0.30;;;13.30;91.10;;;;;;5047241;28;20033;-62
2024/01/02 12:33:37;;;;;;;0.30;0.20;;;13.40;91.10;;;;;;5047475;28;20040;-61
2024/01/02 12:36:21;;;;;;;0.25;0.20;;;13.30;91.00;;;;;;5047635;28;20479;-62
2024/01/02 12:38:55;;;;;;;0.50;0.45;;;13.30;91.10;;;;;;5047869;28;20094;-68
2024/01/02 12:41:25;;;;;;;0.57;0.50;;;13.30;91.00;;;;;;5051720;28;20075;-69
2024/01/02 12:44:03;;;;;;;0.47;0.43;;;13.30;91.00;;;;;;5047915;28;20033;-69
2024/01/02 12:46:41;;;;;;;0.40;0.40;;;13.30;91.10;;;;;;5045464;28;20037;-69
2024/01/02 12:49:14;;;;;;;0.40;0.40;;;13.20;91.00;;;;;;5048967;28;20022;-62
2024/01/02 12:51:44;;;;;;;0.30;0.30;;;13.20;91.00;;;;;;5052294;28;20024;-62
2024/01/02 12:54:13;;;;;;;1.83;0.32;;;13.20;91.00;;;;;;5040978;28;20025;-62
2024/01/02 12:56:42;;;;;;;0.32;0.32;;;13.10;91.00;;;;;;5042854;28;20084;-62
2024/01/02 12:59:08;;;;;;;0.22;0.22;;;13.10;91.00;;;;;;5048412;28;20104;-69
2024/01/02 13:01:36;;;;;;;0.60;0.50;;;13.10;91.00;;;;;;5055133;28;20115;-62